Current Weather

Oxnard

Oxnard, California (KOXR)

Report from: Sunday, February 25, 2024 12:51 PM PST
Current time: Sunday, February 25, 2024 1:09 PM PST

Nearby weather – Weather history – Daily summaries
Weather forecast

Temperature17.8°C (64.0°F)
Dew point12.8°C (55.0°F)
Winds Calm
Visibility10 mi. (16.1 km)
Clouds Ceiling: Broken clouds 25,000 ft. (7,620 m)
Altimeter30.03 in.Hg (1017 mB)
Relative humidity73 %
Density altitude409 ft. (125 m)
Sea-level pressure101.7 kPa (1017 mB, 30.03 in.Hg)
Remarks System requires maintenance
Automated weather observing station with precipitation discriminator
Pressure falling more quickly
Flight conditions Visual Meteorological Conditions
Raw dataKOXR 252051Z 00000KT 10SM BKN250 18/13 A3003 RMK AO2 SLP170 T01780128 58017 $
An error has occurred. This application may no longer respond until reloaded. Reload 🗙